createdAt,value
2018-12-18T00:02:17.451Z,20.70
2018-12-18T00:04:45.038Z,22.10
2018-12-18T00:07:12.723Z,19.00
2018-12-18T00:09:40.244Z,20.13
2018-12-18T00:12:07.956Z,20.13
2018-12-18T00:14:35.618Z,29.43
2018-12-18T00:17:03.251Z,21.03
2018-12-18T00:19:35.684Z,22.57
2018-12-18T00:22:03.346Z,27.60
2018-12-18T00:24:30.859Z,23.80
2018-12-18T00:26:58.494Z,24.03
2018-12-18T00:29:26.386Z,27.53
2018-12-18T00:31:53.889Z,22.57
2018-12-18T00:34:21.427Z,25.67
2018-12-18T00:36:50.302Z,23.43
2018-12-18T00:39:17.785Z,26.27
2018-12-18T00:41:46.636Z,24.40
2018-12-18T00:44:14.205Z,31.03
2018-12-18T00:46:42.776Z,24.53
2018-12-18T00:49:10.381Z,26.70
2018-12-18T00:51:37.879Z,25.30
2018-12-18T00:54:05.527Z,34.23
2018-12-18T00:56:33.703Z,22.57
2018-12-18T00:59:02.411Z,30.80
2018-12-18T01:01:29.974Z,25.47
2018-12-18T01:03:58.048Z,30.83
2018-12-18T01:06:25.555Z,25.57
2018-12-18T01:08:53.056Z,26.33
2018-12-18T01:11:23.906Z,28.00
2018-12-18T01:13:51.410Z,28.40
2018-12-18T01:16:18.933Z,30.40
2018-12-18T01:18:46.498Z,28.47
2018-12-18T01:21:14.013Z,28.50
2018-12-18T01:23:41.610Z,30.43
2018-12-18T01:26:09.501Z,28.57
2018-12-18T01:28:41.556Z,30.60
2018-12-18T01:31:09.052Z,20.80
2018-12-18T01:33:36.570Z,31.13
2018-12-18T01:36:04.054Z,29.50
2018-12-18T01:38:33.510Z,32.13
2018-12-18T01:41:01.335Z,32.47
2018-12-18T01:43:29.264Z,31.40
2018-12-18T01:45:58.280Z,33.17
2018-12-18T01:48:26.172Z,29.80
2018-12-18T01:50:53.682Z,25.93
2018-12-18T01:53:21.307Z,28.60
2018-12-18T01:55:48.938Z,25.43
2018-12-18T01:58:16.553Z,36.23
2018-12-18T02:00:44.137Z,32.50
2018-12-18T02:03:11.876Z,41.23
2018-12-18T02:05:39.394Z,37.73
2018-12-18T02:08:06.902Z,33.50
2018-12-18T02:13:29.777Z,29.17
2018-12-18T02:15:57.270Z,33.57
2018-12-18T02:18:25.332Z,30.70
2018-12-18T02:20:53.026Z,30.63
2018-12-18T02:23:20.742Z,35.93
2018-12-18T02:25:48.276Z,31.30
2018-12-18T02:28:15.904Z,34.53
2018-12-18T02:30:43.425Z,34.17
2018-12-18T02:33:10.947Z,28.67
2018-12-18T02:35:42.033Z,26.33
2018-12-18T02:38:31.090Z,34.27
2018-12-18T02:40:58.627Z,24.77
2018-12-18T02:43:26.113Z,32.77
2018-12-18T02:45:53.883Z,30.90
2018-12-18T02:48:21.389Z,25.67
2018-12-18T02:50:48.999Z,34.13
2018-12-18T02:53:16.633Z,28.67
2018-12-18T02:55:45.437Z,29.20
2018-12-18T02:58:13.021Z,28.37
2018-12-18T03:00:40.684Z,29.83
2018-12-18T03:03:11.665Z,29.43
2018-12-18T03:05:39.643Z,44.00
2018-12-18T03:08:08.508Z,34.60
2018-12-18T03:10:36.218Z,34.10
2018-12-18T03:13:09.423Z,34.10
2018-12-18T03:15:37.808Z,32.93
2018-12-18T03:18:05.385Z,33.27
2018-12-18T03:23:29.319Z,33.07
2018-12-18T03:26:02.265Z,35.10
2018-12-18T03:28:29.891Z,32.83
2018-12-18T03:30:57.676Z,31.73
2018-12-18T03:33:25.678Z,32.40
2018-12-18T03:35:53.334Z,36.10
2018-12-18T03:38:20.878Z,34.23
2018-12-18T03:40:48.462Z,36.60
2018-12-18T03:43:16.907Z,36.00
2018-12-18T03:45:44.982Z,38.00
2018-12-18T03:48:14.010Z,30.57
2018-12-18T03:50:42.616Z,33.50
2018-12-18T03:53:11.324Z,33.13
2018-12-18T03:55:38.972Z,28.87
2018-12-18T03:58:06.492Z,30.17
2018-12-18T04:00:34.962Z,31.33
2018-12-18T04:03:02.885Z,32.07
2018-12-18T04:05:30.499Z,38.97
2018-12-18T04:07:58.078Z,39.07
2018-12-18T04:10:32.600Z,31.27
2018-12-18T04:13:00.146Z,35.73
2018-12-18T04:15:27.725Z,33.97
2018-12-18T04:17:55.441Z,34.63
2018-12-18T04:20:23.309Z,33.07
2018-12-18T04:22:50.940Z,31.60
2018-12-18T04:25:18.478Z,40.23
2018-12-18T04:27:47.028Z,34.43
2018-12-18T04:30:14.616Z,36.07
2018-12-18T04:32:42.215Z,33.83
2018-12-18T04:35:13.336Z,36.03
2018-12-18T04:37:42.234Z,42.13
2018-12-18T04:40:10.292Z,30.83
2018-12-18T04:42:37.859Z,34.67
2018-12-18T04:45:09.906Z,30.73
2018-12-18T04:47:37.597Z,51.00
2018-12-18T04:50:06.354Z,33.80
2018-12-18T04:52:33.913Z,37.97
2018-12-18T04:55:05.468Z,32.00
2018-12-18T04:57:33.087Z,36.90
2018-12-18T05:00:00.578Z,42.17
2018-12-18T05:02:29.365Z,54.20
2018-12-18T05:04:56.877Z,38.07
2018-12-18T05:07:24.395Z,40.43
2018-12-18T05:09:51.929Z,35.13
2018-12-18T05:12:19.979Z,51.17
2018-12-18T05:14:47.539Z,38.00
2018-12-18T05:17:15.792Z,52.13
2018-12-18T05:19:43.291Z,38.40
2018-12-18T05:22:10.854Z,42.73
2018-12-18T05:24:39.759Z,52.33
2018-12-18T05:27:07.483Z,67.10
2018-12-18T05:29:34.993Z,40.60
2018-12-18T05:32:02.543Z,44.60
2018-12-18T05:34:30.184Z,66.20
2018-12-18T05:36:57.901Z,51.87
2018-12-18T05:39:25.470Z,48.17
2018-12-18T05:41:52.984Z,35.53
2018-12-18T05:44:20.480Z,48.13
2018-12-18T05:46:55.611Z,74.33
2018-12-18T05:49:23.596Z,59.50
2018-12-18T05:51:51.126Z,48.50
2018-12-18T05:54:19.108Z,30.90
2018-12-18T05:56:47.752Z,47.37
2018-12-18T05:59:15.725Z,37.30
2018-12-18T06:01:43.265Z,38.80
2018-12-18T06:07:03.857Z,69.63
2018-12-18T06:09:31.385Z,61.07
2018-12-18T06:11:58.897Z,47.37
2018-12-18T06:14:26.469Z,54.80
2018-12-18T06:16:54.973Z,50.83
2018-12-18T06:19:22.600Z,45.63
2018-12-18T06:21:50.122Z,60.87
2018-12-18T06:24:23.742Z,45.53
2018-12-18T06:26:51.243Z,38.80
2018-12-18T06:29:23.169Z,45.93
2018-12-18T06:31:50.666Z,33.77
2018-12-18T06:34:18.520Z,38.43
2018-12-18T06:36:47.395Z,31.93
2018-12-18T06:39:14.967Z,49.93
2018-12-18T06:41:42.470Z,47.00
2018-12-18T06:44:10.023Z,38.50
2018-12-18T06:46:38.569Z,46.43
2018-12-18T06:49:06.109Z,41.50
2018-12-18T06:51:34.003Z,40.17
2018-12-18T06:54:01.503Z,37.27
2018-12-18T06:56:35.543Z,34.77
2018-12-18T06:59:03.065Z,37.57
2018-12-18T07:01:30.566Z,27.00
2018-12-18T07:04:02.003Z,27.23
2018-12-18T07:06:29.511Z,28.33
2018-12-18T07:08:57.045Z,31.07
2018-12-18T07:14:18.381Z,33.33
2018-12-18T07:16:45.894Z,34.17
2018-12-18T07:19:13.699Z,32.07
2018-12-18T07:21:41.201Z,36.30
2018-12-18T07:24:14.044Z,31.60
2018-12-18T07:26:38.603Z,36.90
2018-12-18T07:29:06.566Z,42.93
2018-12-18T07:31:49.484Z,33.93
2018-12-18T07:34:17.354Z,34.13
2018-12-18T07:36:44.859Z,29.57
2018-12-18T07:39:12.370Z,43.73
2018-12-18T07:42:03.700Z,31.70
2018-12-18T07:44:31.206Z,25.43
2018-12-18T07:46:58.801Z,42.13
2018-12-18T07:49:26.337Z,35.37
2018-12-18T07:52:03.924Z,39.07
2018-12-18T07:54:31.459Z,26.93
2018-12-18T07:56:58.939Z,33.07
2018-12-18T07:59:41.631Z,32.40
2018-12-18T08:02:09.198Z,34.00
2018-12-18T08:04:36.688Z,30.97
2018-12-18T08:07:18.910Z,32.53
2018-12-18T08:09:47.359Z,25.97
2018-12-18T08:12:14.970Z,30.10
2018-12-18T08:14:42.483Z,24.77
2018-12-18T08:17:15.958Z,32.10
2018-12-18T08:19:43.473Z,21.17
2018-12-18T08:22:10.985Z,22.03
2018-12-18T08:24:58.070Z,20.30
2018-12-18T08:27:25.565Z,22.10
2018-12-18T08:29:53.047Z,24.53
2018-12-18T08:32:27.681Z,22.30
2018-12-18T08:34:55.175Z,19.97
2018-12-18T08:37:22.664Z,28.23
2018-12-18T08:39:50.175Z,25.77
2018-12-18T08:42:18.764Z,19.40
2018-12-18T08:44:46.246Z,22.20
2018-12-18T08:47:13.772Z,24.70
2018-12-18T08:49:41.384Z,31.93
2018-12-18T08:52:08.897Z,35.30
2018-12-18T08:54:36.561Z,39.43
2018-12-18T08:57:24.255Z,32.30
2018-12-18T08:59:51.776Z,29.93
2018-12-18T09:02:19.267Z,36.70
2018-12-18T09:04:46.754Z,58.50
2018-12-18T09:07:20.675Z,64.57
2018-12-18T09:09:48.202Z,57.40
2018-12-18T09:12:16.367Z,41.20
2018-12-18T09:14:57.499Z,34.80
2018-12-18T09:17:30.719Z,33.37
2018-12-18T09:19:58.338Z,34.57
2018-12-18T09:22:25.875Z,30.67
2018-12-18T09:24:53.375Z,32.83
2018-12-18T09:27:22.260Z,36.47
2018-12-18T09:29:52.471Z,44.70
2018-12-18T09:32:26.994Z,27.33
2018-12-18T09:34:55.045Z,33.60
2018-12-18T09:37:22.595Z,35.83
2018-12-18T10:06:04.592Z,24.00
2018-12-18T10:08:32.307Z,29.33
2018-12-18T10:10:59.989Z,23.30
2018-12-18T10:13:28.321Z,19.13
2018-12-18T10:15:57.519Z,26.13
2018-12-18T10:18:25.360Z,43.10
2018-12-18T10:20:53.027Z,66.80
2018-12-18T10:23:20.687Z,33.50
2018-12-18T10:25:55.653Z,38.27
2018-12-18T10:28:23.243Z,34.03
2018-12-18T10:31:03.084Z,26.53
2018-12-18T10:33:30.689Z,38.33
2018-12-18T10:39:07.594Z,33.37
2018-12-18T10:41:35.234Z,33.60
2018-12-18T10:44:08.578Z,32.73
2018-12-18T10:46:38.609Z,31.37
2018-12-18T10:49:06.682Z,30.70
2018-12-18T10:51:34.235Z,38.60
2018-12-18T10:54:05.289Z,30.17
2018-12-18T10:56:32.858Z,28.40
2018-12-18T10:59:00.412Z,24.87
2018-12-18T11:01:33.587Z,25.93
2018-12-18T11:04:01.209Z,29.00
2018-12-18T11:06:30.296Z,26.83
2018-12-18T11:08:58.717Z,23.33
2018-12-18T11:11:27.377Z,30.50
2018-12-18T11:13:54.884Z,29.27
2018-12-18T11:16:23.194Z,38.43
2018-12-18T11:18:50.795Z,36.13
2018-12-18T11:21:19.380Z,43.03
2018-12-18T11:23:46.994Z,36.03
2018-12-18T11:26:15.653Z,30.43
2018-12-18T11:28:43.953Z,36.87
2018-12-18T11:31:13.549Z,33.07
2018-12-18T11:33:41.082Z,33.90
2018-12-18T11:36:08.790Z,23.90
2018-12-18T11:38:37.650Z,30.67
2018-12-18T11:41:05.990Z,25.60
2018-12-18T11:43:33.563Z,25.97
2018-12-18T11:46:07.321Z,24.87
2018-12-18T11:48:35.822Z,31.30
2018-12-18T11:51:03.422Z,23.87
2018-12-18T11:53:48.013Z,19.33
2018-12-18T11:56:15.722Z,18.43
2018-12-18T11:58:43.402Z,22.67
2018-12-18T12:01:10.979Z,19.83
2018-12-18T12:03:44.665Z,25.30
2018-12-18T12:06:12.173Z,25.97
2018-12-18T12:08:40.155Z,29.10
2018-12-18T12:11:07.661Z,27.73
2018-12-18T12:13:35.242Z,25.10
2018-12-18T12:16:03.204Z,23.23
2018-12-18T12:18:31.276Z,18.83
2018-12-18T12:21:20.221Z,26.40
2018-12-18T12:23:47.705Z,20.40
2018-12-18T12:26:20.803Z,19.37
2018-12-18T12:28:48.314Z,26.87
2018-12-18T12:31:22.132Z,23.13
2018-12-18T12:33:49.638Z,24.83
2018-12-18T12:36:17.210Z,20.67
2018-12-18T12:38:45.121Z,18.47
2018-12-18T12:41:12.604Z,21.60
2018-12-18T12:43:40.581Z,18.10
2018-12-18T12:46:09.474Z,15.37
2018-12-18T12:48:52.959Z,24.40
2018-12-18T12:51:20.564Z,29.77
2018-12-18T12:53:48.058Z,16.77
2018-12-18T12:56:16.778Z,18.90
2018-12-18T12:58:51.857Z,16.50
2018-12-18T13:01:19.758Z,17.93
2018-12-18T13:03:47.276Z,23.57
2018-12-18T13:06:21.577Z,15.00
2018-12-18T13:08:49.101Z,15.23
2018-12-18T13:11:16.601Z,19.83
2018-12-18T13:13:54.303Z,19.20
2018-12-18T13:16:21.792Z,15.83
2018-12-18T13:18:49.290Z,18.07
2018-12-18T13:21:16.825Z,21.80
2018-12-18T13:23:56.273Z,23.87
2018-12-18T13:26:23.826Z,14.53
2018-12-18T13:28:51.312Z,20.20
2018-12-18T13:31:19.719Z,14.03
2018-12-18T13:33:47.436Z,14.80
2018-12-18T13:36:14.944Z,20.60
2018-12-18T13:38:43.027Z,16.30
2018-12-18T13:41:13.810Z,18.07
2018-12-18T13:43:41.476Z,29.03
2018-12-18T13:46:14.866Z,14.77
2018-12-18T13:48:38.651Z,11.60
2018-12-18T13:51:06.125Z,10.23
2018-12-18T13:53:33.603Z,14.60
2018-12-18T13:56:04.354Z,13.30
2018-12-18T13:58:31.851Z,13.07
2018-12-18T14:00:59.450Z,11.47
2018-12-18T14:03:27.324Z,18.97
2018-12-18T14:05:54.942Z,11.73
2018-12-18T14:08:22.394Z,12.03
2018-12-18T14:10:49.899Z,10.50
2018-12-18T14:13:23.460Z,11.63
2018-12-18T14:15:52.331Z,9.50
2018-12-18T14:18:19.924Z,14.10
2018-12-18T14:20:47.407Z,20.90
2018-12-18T14:23:14.936Z,16.00
2018-12-18T14:25:42.544Z,31.23
2018-12-18T14:28:10.019Z,19.80
2018-12-18T14:30:37.707Z,11.70
2018-12-18T14:33:05.283Z,10.07
2018-12-18T14:35:32.772Z,12.73
2018-12-18T14:38:00.416Z,11.07
2018-12-18T14:40:28.034Z,14.17
2018-12-18T14:42:55.553Z,12.10
2018-12-18T14:45:23.106Z,13.10
2018-12-18T14:47:50.793Z,15.60
2018-12-18T14:50:18.273Z,14.57
2018-12-18T14:52:45.795Z,12.37
2018-12-18T14:55:13.306Z,13.13
2018-12-18T14:57:40.832Z,13.43
2018-12-18T15:00:08.802Z,12.40
2018-12-18T15:02:36.305Z,13.90
2018-12-18T15:05:04.321Z,11.70
2018-12-18T15:07:31.836Z,9.70
2018-12-18T15:10:00.152Z,13.73
2018-12-18T15:12:27.652Z,18.33
2018-12-18T15:14:55.727Z,9.53
2018-12-18T15:17:23.205Z,15.70
2018-12-18T15:19:50.701Z,11.73
2018-12-18T15:22:18.273Z,15.43
2018-12-18T15:24:45.847Z,13.63
2018-12-18T15:27:13.390Z,11.47
2018-12-18T15:29:40.971Z,10.70
2018-12-18T15:32:08.514Z,12.60
2018-12-18T15:34:37.005Z,10.70
2018-12-18T15:37:09.583Z,18.17
2018-12-18T15:39:34.109Z,19.17
2018-12-18T15:42:02.072Z,14.83
2018-12-18T15:44:29.742Z,19.43
2018-12-18T15:46:57.246Z,16.10
2018-12-18T15:49:24.784Z,20.20
2018-12-18T15:51:52.336Z,24.70
2018-12-18T15:54:20.163Z,16.63
2018-12-18T15:56:47.934Z,24.23
2018-12-18T15:59:15.672Z,20.63
2018-12-18T16:01:43.182Z,19.33
2018-12-18T16:04:10.860Z,17.57
2018-12-18T16:06:38.359Z,15.03
2018-12-18T16:09:07.656Z,14.90
2018-12-18T16:11:35.237Z,17.50
2018-12-18T16:14:02.973Z,21.20
2018-12-18T16:16:30.711Z,20.60
2018-12-18T16:18:58.246Z,21.30
2018-12-18T16:21:26.203Z,26.70
2018-12-18T16:23:54.673Z,23.67
2018-12-18T16:26:22.541Z,30.77
2018-12-18T16:28:50.158Z,20.30
2018-12-18T16:31:17.792Z,23.97
2018-12-18T16:33:45.636Z,23.70
2018-12-18T16:36:13.153Z,24.43
2018-12-18T16:38:40.738Z,23.33
2018-12-18T16:41:08.378Z,27.50
2018-12-18T16:43:35.941Z,27.77
2018-12-18T16:46:03.609Z,29.77
2018-12-18T16:48:32.215Z,25.60
2018-12-18T16:50:59.857Z,23.63
2018-12-18T16:53:27.421Z,26.83
2018-12-18T16:55:55.043Z,30.30
2018-12-18T16:58:22.787Z,25.80
2018-12-18T17:00:50.339Z,28.20
2018-12-18T17:03:17.841Z,31.37
2018-12-18T17:05:45.365Z,42.70
2018-12-18T17:08:13.110Z,31.23
2018-12-18T17:10:41.471Z,32.10
2018-12-18T17:13:08.976Z,43.37
2018-12-18T17:15:36.513Z,24.93
2018-12-18T17:18:04.180Z,25.40
2018-12-18T17:20:32.052Z,24.70
2018-12-18T17:22:59.689Z,31.47
2018-12-18T17:25:27.246Z,29.77
2018-12-18T17:27:54.754Z,25.87
2018-12-18T17:30:22.442Z,28.00
2018-12-18T17:32:50.105Z,37.10
2018-12-18T17:35:17.620Z,52.83
2018-12-18T17:37:45.130Z,49.20
2018-12-18T17:40:12.639Z,63.47
2018-12-18T17:42:40.158Z,62.37
2018-12-18T17:45:07.834Z,60.77
2018-12-18T17:47:35.411Z,59.27
2018-12-18T17:50:03.791Z,50.50
2018-12-18T17:52:31.293Z,80.10
2018-12-18T17:54:59.295Z,64.57
2018-12-18T17:57:26.880Z,74.50
2018-12-18T17:59:54.510Z,72.90
2018-12-18T18:02:22.006Z,62.67
2018-12-18T18:04:49.758Z,75.57
2018-12-18T18:07:17.389Z,68.40
2018-12-18T18:09:45.039Z,62.20
2018-12-18T18:12:12.553Z,59.97
2018-12-18T18:14:40.128Z,53.70
2018-12-18T18:17:07.688Z,56.93
2018-12-18T18:19:35.220Z,55.27
2018-12-18T18:22:02.935Z,61.23
2018-12-18T18:24:32.093Z,70.83
2018-12-18T18:26:59.577Z,77.50
2018-12-18T18:29:27.165Z,58.90
2018-12-18T18:31:54.721Z,49.63
2018-12-18T18:34:22.514Z,52.43
2018-12-18T18:36:50.386Z,52.60
2018-12-18T18:39:18.333Z,61.23
2018-12-18T18:41:46.008Z,60.97
2018-12-18T18:44:13.512Z,53.03
2018-12-18T18:46:41.077Z,54.07
2018-12-18T18:49:08.746Z,48.13
2018-12-18T18:51:36.243Z,47.73
2018-12-18T18:54:04.570Z,55.53
2018-12-18T18:56:32.336Z,45.77
2018-12-18T18:58:59.968Z,43.30
2018-12-18T19:01:27.544Z,49.10
2018-12-18T19:03:56.096Z,45.57
2018-12-18T19:06:24.223Z,56.47
2018-12-18T19:08:51.703Z,47.70
2018-12-18T19:11:19.205Z,48.03
2018-12-18T19:13:46.788Z,41.10
2018-12-18T19:16:14.384Z,48.80
2018-12-18T19:18:41.967Z,51.30
2018-12-18T19:21:09.578Z,43.00
2018-12-18T19:23:37.241Z,39.07
2018-12-18T19:26:05.678Z,40.43
2018-12-18T19:28:33.467Z,38.63
2018-12-18T19:31:01.074Z,30.73
2018-12-18T19:33:28.720Z,38.77
2018-12-18T19:35:56.354Z,33.10
2018-12-18T19:38:23.942Z,30.70
2018-12-18T19:40:51.617Z,29.93
2018-12-18T19:43:19.432Z,37.40
2018-12-18T19:45:48.529Z,32.70
2018-12-18T19:48:16.796Z,34.63
2018-12-18T19:50:44.735Z,28.80
2018-12-18T19:53:12.933Z,33.63
2018-12-18T19:55:40.799Z,32.87
2018-12-18T19:58:08.398Z,33.43
2018-12-18T20:00:36.139Z,28.07
2018-12-18T20:03:04.399Z,24.63
2018-12-18T20:05:32.107Z,26.80
2018-12-18T20:07:59.707Z,28.13
2018-12-18T20:10:27.253Z,26.73
2018-12-18T20:12:54.903Z,33.63
2018-12-18T20:15:22.561Z,30.73
2018-12-18T20:17:50.079Z,29.53
2018-12-18T20:20:17.740Z,28.13
2018-12-18T20:22:45.394Z,24.20
2018-12-18T20:25:12.993Z,27.30
2018-12-18T20:27:40.533Z,27.50
2018-12-18T20:30:08.289Z,40.40
2018-12-18T20:32:35.784Z,31.03
2018-12-18T20:35:03.528Z,37.43
2018-12-18T20:37:31.155Z,34.50
2018-12-18T20:39:58.752Z,37.30
2018-12-18T20:42:26.401Z,29.73
2018-12-18T20:44:54.337Z,31.57
2018-12-18T20:47:22.564Z,32.27
2018-12-18T20:49:50.330Z,26.87
2018-12-18T20:52:18.311Z,30.53
2018-12-18T20:54:45.932Z,26.40
2018-12-18T20:57:13.645Z,24.90
2018-12-18T20:59:41.284Z,23.17
2018-12-18T21:02:08.932Z,28.60
2018-12-18T21:04:37.955Z,27.77
2018-12-18T21:07:05.764Z,31.93
2018-12-18T21:09:33.669Z,33.50
2018-12-18T21:12:01.194Z,25.67
2018-12-18T21:14:29.965Z,31.47
2018-12-18T21:16:57.559Z,28.77
2018-12-18T21:19:25.078Z,24.37
2018-12-18T21:21:52.733Z,20.60
2018-12-18T21:24:20.295Z,28.33
2018-12-18T21:26:47.976Z,24.83
2018-12-18T21:29:15.551Z,26.10
2018-12-18T21:31:43.086Z,27.07
2018-12-18T21:34:10.589Z,28.97
2018-12-18T21:36:38.753Z,29.37
2018-12-18T21:39:07.709Z,37.10
2018-12-18T21:41:35.616Z,34.13
2018-12-18T21:44:03.515Z,30.47
2018-12-18T21:46:31.684Z,31.00
2018-12-18T21:48:59.299Z,25.73
2018-12-18T21:51:26.839Z,32.03
2018-12-18T21:53:54.385Z,35.37
2018-12-18T21:56:22.071Z,29.60
2018-12-18T21:58:49.714Z,29.90
2018-12-18T22:01:17.500Z,27.23
2018-12-18T22:03:45.004Z,27.00
2018-12-18T22:06:12.704Z,30.17
2018-12-18T22:08:40.185Z,23.20
2018-12-18T22:11:07.816Z,28.00
2018-12-18T22:13:35.378Z,34.03
2018-12-18T22:16:02.871Z,20.70
2018-12-18T22:18:30.585Z,31.70
2018-12-18T22:20:58.235Z,27.00
2018-12-18T22:23:25.901Z,21.23
2018-12-18T22:25:53.475Z,18.73
2018-12-18T22:28:21.032Z,25.70
2018-12-18T22:30:48.615Z,22.50
2018-12-18T22:33:16.377Z,23.57
2018-12-18T22:35:43.963Z,20.73
2018-12-18T22:38:11.685Z,25.33
2018-12-18T22:40:39.289Z,22.93
2018-12-18T22:43:06.958Z,22.13
2018-12-18T22:45:34.592Z,21.77
2018-12-18T22:48:02.206Z,19.27
2018-12-18T22:50:29.750Z,21.47
2018-12-18T22:52:57.403Z,25.07
2018-12-18T22:55:24.969Z,22.97
2018-12-18T22:57:52.611Z,20.50
2018-12-18T23:00:26.109Z,23.30
2018-12-18T23:02:53.586Z,25.13
2018-12-18T23:05:21.127Z,22.20
2018-12-18T23:07:48.644Z,17.73
2018-12-18T23:10:16.291Z,19.90
2018-12-18T23:12:43.826Z,21.03
2018-12-18T23:15:11.501Z,21.67
2018-12-18T23:17:38.970Z,21.57
2018-12-18T23:20:06.552Z,20.67
2018-12-18T23:22:34.229Z,24.93
2018-12-18T23:25:01.937Z,15.53
2018-12-18T23:27:29.526Z,19.73
2018-12-18T23:29:57.265Z,21.37
2018-12-18T23:32:24.787Z,23.30
2018-12-18T23:34:52.396Z,22.53
2018-12-18T23:37:20.083Z,17.10
2018-12-18T23:39:47.671Z,14.20
2018-12-18T23:42:15.260Z,17.83
2018-12-18T23:44:42.847Z,19.10
2018-12-18T23:47:10.447Z,14.30
2018-12-18T23:49:37.939Z,14.10
2018-12-18T23:52:06.414Z,12.80
2018-12-18T23:54:33.933Z,15.27
2018-12-18T23:57:01.534Z,22.67
2018-12-18T23:59:29.122Z,16.60
